Time;durP1;ratioP1;P1;durP2;ratioP2;P2;SDS_P1;SDS_P2;PMS_P1;PMS_P2;Temp;Humidity;BMP_temperature;BMP_pressure;BME280_temperature;BME280_humidity;BME280_pressure;Samples;Min_cycle;Max_cycle;Signal;HPM_P1;HPM_P2
2022/06/08 00:01:07;;;;;;;;;2.00;1.00;;;;;;;;4971238;28;48765;-65
2022/06/08 00:03:36;;;;;;;;;3.00;2.00;;;;;;;;5004169;28;45957;-66
2022/06/08 00:06:02;;;;;;;;;2.75;2.50;;;;;;;;4972705;28;45413;-67
2022/06/08 00:08:27;;;;;;;;;2.75;1.50;;;;;;;;4971437;28;45364;-66
2022/06/08 00:10:52;;;;;;;;;2.75;1.25;;;;;;;;4988622;28;47050;-66
2022/06/08 00:13:17;;;;;;;;;2.00;2.00;;;;;;;;4972800;28;45474;-66
2022/06/08 00:15:43;;;;;;;;;1.75;1.00;;;;;;;;4972476;28;45363;-66
2022/06/08 00:18:10;;;;;;;;;2.50;1.25;;;;;;;;5004213;28;45437;-67
2022/06/08 00:20:35;;;;;;;;;2.75;1.00;;;;;;;;4972860;28;46348;-66
2022/06/08 00:23:01;;;;;;;;;2.00;2.00;;;;;;;;4972907;28;45363;-66
2022/06/08 00:25:26;;;;;;;;;1.50;1.50;;;;;;;;4973236;28;45480;-66
2022/06/08 00:27:51;;;;;;;;;1.25;1.00;;;;;;;;4975453;28;45344;-65
2022/06/08 00:30:16;;;;;;;;;1.75;1.75;;;;;;;;4976046;28;45585;-66
2022/06/08 00:32:42;;;;;;;;;1.75;1.75;;;;;;;;4975582;28;45446;-65
2022/06/08 00:35:07;;;;;;;;;2.25;2.00;;;;;;;;4991140;28;45340;-66
2022/06/08 00:37:32;;;;;;;;;2.00;1.00;;;;;;;;4991663;28;45747;-65
2022/06/08 00:39:57;;;;;;;;;1.00;1.00;;;;;;;;4976037;28;46435;-66
2022/06/08 00:42:23;;;;;;;;;1.50;1.50;;;;;;;;4975969;28;45420;-67
2022/06/08 00:44:51;;;;;;;;;1.75;1.75;;;;;;;;4976250;28;45406;-67
2022/06/08 00:47:19;;;;;;;;;1.00;1.00;;;;;;;;4976133;28;45498;-67
2022/06/08 00:49:50;;;;;;;;;1.00;1.00;;;;;;;;4976346;28;45402;-67
2022/06/08 00:52:16;;;;;;;;;2.75;1.00;;;;;;;;4975725;28;45390;-67
2022/06/08 00:54:44;;;;;;;;;5.50;3.00;;;;;;;;4975730;28;45502;-66
2022/06/08 00:57:09;;;;;;;;;4.00;3.50;;;;;;;;5007235;28;45521;-67
2022/06/08 00:59:37;;;;;;;;;5.00;1.50;;;;;;;;4972848;28;48616;-68
2022/06/08 01:02:03;;;;;;;;;1.75;1.50;;;;;;;;4974716;28;46655;-67
2022/06/08 01:04:29;;;;;;;;;2.00;2.00;;;;;;;;4975671;28;45501;-67
2022/06/08 01:06:55;;;;;;;;;3.25;2.50;;;;;;;;4975657;28;45532;-68
2022/06/08 01:09:26;;;;;;;;;2.50;1.00;;;;;;;;4975136;28;45832;-67
2022/06/08 01:11:52;;;;;;;;;1.50;0.75;;;;;;;;4975513;28;45528;-66
2022/06/08 01:14:19;;;;;;;;;1.00;1.00;;;;;;;;4974217;28;45459;-67
2022/06/08 01:16:50;;;;;;;;;3.25;2.75;;;;;;;;4976040;28;45478;-66
2022/06/08 01:19:15;;;;;;;;;3.75;2.00;;;;;;;;4975005;28;46037;-67
2022/06/08 01:21:44;;;;;;;;;2.25;1.50;;;;;;;;4974825;28;45392;-66
2022/06/08 01:24:10;;;;;;;;;3.75;2.00;;;;;;;;4973917;28;45506;-67
2022/06/08 01:26:54;;;;;;;;;2.00;2.00;;;;;;;;5006447;28;45602;-65
2022/06/08 01:29:20;;;;;;;;;1.75;1.75;;;;;;;;4974985;28;45825;-66
2022/06/08 01:31:45;;;;;;;;;3.75;2.00;;;;;;;;4975331;28;45530;-66
2022/06/08 01:34:17;;;;;;;;;2.50;2.25;;;;;;;;4975289;28;46130;-67
2022/06/08 01:36:44;;;;;;;;;4.75;1.50;;;;;;;;4975278;28;45529;-66
2022/06/08 01:39:10;;;;;;;;;2.00;2.00;;;;;;;;4974442;28;46408;-67
2022/06/08 01:41:54;;;;;;;;;3.25;1.75;;;;;;;;4974614;28;45453;-66
2022/06/08 01:44:34;;;;;;;;;5.50;3.00;;;;;;;;4990043;28;45464;-65
2022/06/08 01:47:03;;;;;;;;;1.75;1.75;;;;;;;;4973569;28;45530;-66
2022/06/08 01:49:31;;;;;;;;;2.00;2.00;;;;;;;;4975117;28;46360;-66
2022/06/08 01:52:25;;;;;;;;;2.50;2.50;;;;;;;;4974374;28;45405;-67
2022/06/08 01:55:11;;;;;;;;;2.50;1.75;;;;;;;;4980539;28;45364;-67
2022/06/08 01:57:36;;;;;;;;;4.00;3.00;;;;;;;;4976060;28;45619;-67
2022/06/08 02:00:07;;;;;;;;;3.00;2.00;;;;;;;;4976420;28;48498;-67
2022/06/08 02:02:42;;;;;;;;;3.75;3.75;;;;;;;;4973084;28;45535;-66
2022/06/08 02:05:22;;;;;;;;;2.75;2.75;;;;;;;;4958071;28;45412;-66
2022/06/08 02:07:50;;;;;;;;;1.75;1.75;;;;;;;;4977284;28;45442;-67
2022/06/08 02:10:21;;;;;;;;;3.25;3.25;;;;;;;;4976217;28;46440;-65
2022/06/08 02:12:49;;;;;;;;;3.00;3.00;;;;;;;;4959636;28;45481;-67
2022/06/08 02:15:25;;;;;;;;;4.50;2.75;;;;;;;;4975686;28;45508;-67
2022/06/08 02:17:53;;;;;;;;;8.00;1.25;;;;;;;;4975151;28;45743;-66
2022/06/08 02:20:22;;;;;;;;;3.25;2.25;;;;;;;;4956298;28;47596;-67
2022/06/08 02:22:51;;;;;;;;;3.50;3.50;;;;;;;;4977179;28;45396;-66
2022/06/08 02:25:18;;;;;;;;;1.75;1.75;;;;;;;;4975960;28;45554;-64
2022/06/08 02:28:03;;;;;;;;;5.25;2.00;;;;;;;;4972443;28;45689;-66
2022/06/08 02:30:31;;;;;;;;;2.50;2.50;;;;;;;;4965971;28;46819;-67
2022/06/08 02:35:48;;;;;;;;;4.00;3.00;;;;;;;;4974468;28;45335;-65
2022/06/08 02:38:14;;;;;;;;;2.75;2.25;;;;;;;;4973200;28;45599;-66
2022/06/08 02:40:42;;;;;;;;;3.25;3.25;;;;;;;;4989619;28;48313;-66
2022/06/08 02:43:15;;;;;;;;;2.25;2.25;;;;;;;;4972622;28;45667;-66
2022/06/08 02:45:42;;;;;;;;;4.25;1.75;;;;;;;;5005673;28;45461;-66
2022/06/08 02:48:12;;;;;;;;;5.00;3.50;;;;;;;;4972577;28;45464;-65
2022/06/08 02:50:46;;;;;;;;;4.50;3.00;;;;;;;;4973087;28;45576;-65
2022/06/08 02:53:17;;;;;;;;;2.00;2.00;;;;;;;;4974171;28;45837;-65
2022/06/08 02:55:42;;;;;;;;;1.25;1.25;;;;;;;;4974766;28;45483;-65
2022/06/08 02:58:19;;;;;;;;;3.75;3.75;;;;;;;;4974200;28;45353;-68
2022/06/08 03:01:13;;;;;;;;;4.50;3.00;;;;;;;;4973802;28;45637;-69
2022/06/08 03:03:41;;;;;;;;;2.25;1.50;;;;;;;;4975927;28;45580;-70
2022/06/08 03:06:09;;;;;;;;;4.00;3.00;;;;;;;;5005310;28;45493;-69
2022/06/08 03:08:41;;;;;;;;;5.00;3.00;;;;;;;;4972565;28;45579;-69
2022/06/08 03:11:07;;;;;;;;;4.00;2.25;;;;;;;;4973762;28;45855;-68
2022/06/08 03:13:38;;;;;;;;;3.00;3.00;;;;;;;;4974268;28;45404;-68
2022/06/08 03:16:05;;;;;;;;;4.00;3.50;;;;;;;;4972274;28;45562;-68
2022/06/08 03:18:30;;;;;;;;;2.75;2.50;;;;;;;;4973445;28;45395;-68
2022/06/08 03:20:57;;;;;;;;;4.50;3.75;;;;;;;;4971751;28;47716;-69
2022/06/08 03:23:23;;;;;;;;;4.00;2.00;;;;;;;;4973657;28;45537;-68
2022/06/08 03:25:49;;;;;;;;;0.50;0.50;;;;;;;;4988973;28;45400;-67
2022/06/08 03:28:14;;;;;;;;;4.75;1.75;;;;;;;;5004802;28;45630;-67
2022/06/08 03:30:41;;;;;;;;;3.00;3.00;;;;;;;;4972006;28;48062;-67
2022/06/08 03:33:06;;;;;;;;;2.00;2.00;;;;;;;;4971940;28;46322;-67
2022/06/08 03:35:31;;;;;;;;;2.25;2.25;;;;;;;;4972111;28;45972;-69
2022/06/08 03:37:58;;;;;;;;;2.75;1.50;;;;;;;;4972572;28;45482;-70
2022/06/08 03:40:23;;;;;;;;;6.50;3.00;;;;;;;;4987210;28;47654;-69
2022/06/08 03:42:49;;;;;;;;;6.00;3.75;;;;;;;;4971829;28;46352;-71
2022/06/08 03:45:14;;;;;;;;;1.25;1.25;;;;;;;;5004945;28;45626;-69
2022/06/08 03:47:47;;;;;;;;;3.00;3.00;;;;;;;;4971885;28;45965;-70
2022/06/08 03:50:14;;;;;;;;;4.00;3.00;;;;;;;;4973496;28;45508;-71
2022/06/08 03:52:43;;;;;;;;;3.00;2.00;;;;;;;;4973766;28;45323;-71
2022/06/08 03:55:09;;;;;;;;;3.50;3.25;;;;;;;;4973354;28;45359;-71
2022/06/08 03:57:35;;;;;;;;;3.50;3.50;;;;;;;;4971773;28;45490;-71
2022/06/08 04:00:01;;;;;;;;;2.75;2.00;;;;;;;;4972976;28;45423;-71
2022/06/08 04:02:27;;;;;;;;;3.00;3.00;;;;;;;;4973646;28;45498;-71
2022/06/08 04:04:52;;;;;;;;;2.50;2.50;;;;;;;;4983628;28;45486;-71
2022/06/08 04:07:17;;;;;;;;;2.00;2.00;;;;;;;;4986855;28;45447;-70
2022/06/08 04:09:42;;;;;;;;;2.25;2.00;;;;;;;;4979880;28;46436;-70
2022/06/08 04:12:08;;;;;;;;;2.75;2.75;;;;;;;;4975540;28;45491;-71
2022/06/08 04:14:34;;;;;;;;;2.25;2.25;;;;;;;;4969004;28;45492;-69
2022/06/08 04:17:01;;;;;;;;;3.50;3.00;;;;;;;;4976132;28;45375;-71
2022/06/08 04:19:26;;;;;;;;;3.50;2.75;;;;;;;;4990523;28;48759;-70
2022/06/08 04:21:51;;;;;;;;;3.25;3.00;;;;;;;;4973687;28;47682;-70
2022/06/08 04:24:17;;;;;;;;;4.50;2.75;;;;;;;;4972423;28;45409;-70
2022/06/08 04:26:43;;;;;;;;;3.00;3.00;;;;;;;;4984792;28;45507;-69
2022/06/08 04:29:09;;;;;;;;;4.50;3.50;;;;;;;;4976164;28;46600;-69
2022/06/08 04:31:35;;;;;;;;;5.00;4.00;;;;;;;;4992603;28;45446;-69
2022/06/08 04:34:01;;;;;;;;;3.50;3.50;;;;;;;;4981905;28;45545;-69
2022/06/08 04:36:27;;;;;;;;;5.00;5.00;;;;;;;;4982272;28;45550;-70
2022/06/08 04:38:52;;;;;;;;;4.25;4.00;;;;;;;;4987563;28;46534;-69
2022/06/08 04:41:18;;;;;;;;;6.25;4.75;;;;;;;;4975455;28;45343;-69
2022/06/08 04:43:43;;;;;;;;;7.00;5.00;;;;;;;;4981082;28;45304;-69
2022/06/08 04:46:14;;;;;;;;;3.50;2.75;;;;;;;;4978305;28;45525;-68
2022/06/08 04:48:40;;;;;;;;;4.50;3.25;;;;;;;;4975135;28;45485;-69
2022/06/08 04:51:06;;;;;;;;;4.75;4.00;;;;;;;;4975658;28;45450;-69
2022/06/08 04:53:31;;;;;;;;;5.00;3.75;;;;;;;;4990724;28;45398;-69
2022/06/08 04:55:56;;;;;;;;;2.25;2.00;;;;;;;;5028120;28;45422;-69
2022/06/08 04:58:26;;;;;;;;;6.50;4.00;;;;;;;;5022049;28;46361;-70
2022/06/08 05:00:51;;;;;;;;;3.00;2.25;;;;;;;;5018312;28;45569;-70
2022/06/08 05:03:16;;;;;;;;;3.75;3.00;;;;;;;;4983884;28;45557;-70
2022/06/08 05:05:42;;;;;;;;;4.00;4.00;;;;;;;;4975434;28;45525;-70
2022/06/08 05:08:08;;;;;;;;;4.00;4.00;;;;;;;;4973673;28;48413;-70
2022/06/08 05:10:35;;;;;;;;;4.50;3.50;;;;;;;;4976064;28;45367;-70
2022/06/08 05:13:01;;;;;;;;;4.25;3.50;;;;;;;;4973528;28;45516;-70
2022/06/08 05:15:28;;;;;;;;;5.00;3.25;;;;;;;;4975171;28;45311;-70
2022/06/08 05:17:53;;;;;;;;;3.00;3.00;;;;;;;;4973754;28;47589;-70
2022/06/08 05:20:19;;;;;;;;;3.00;3.00;;;;;;;;4973982;28;45328;-69
2022/06/08 05:22:45;;;;;;;;;3.00;3.00;;;;;;;;4975593;28;45381;-69
2022/06/08 05:25:11;;;;;;;;;2.00;2.00;;;;;;;;4972908;28;45476;-69
2022/06/08 05:27:38;;;;;;;;;3.00;3.00;;;;;;;;4984041;28;46630;-67
2022/06/08 05:30:03;;;;;;;;;5.50;5.50;;;;;;;;4989699;28;45348;-67
2022/06/08 05:32:28;;;;;;;;;2.00;2.00;;;;;;;;4980453;28;45431;-67
2022/06/08 05:34:54;;;;;;;;;4.00;3.00;;;;;;;;4979836;28;45523;-66
2022/06/08 05:37:19;;;;;;;;;5.25;3.00;;;;;;;;4967870;28;46681;-69
2022/06/08 05:39:44;;;;;;;;;3.00;2.00;;;;;;;;4984773;28;45534;-67
2022/06/08 05:42:09;;;;;;;;;2.00;2.00;;;;;;;;4973932;28;45446;-66
2022/06/08 05:44:35;;;;;;;;;3.25;2.25;;;;;;;;4973063;28;45605;-67
2022/06/08 05:47:02;;;;;;;;;2.00;2.00;;;;;;;;4971163;28;46961;-68
2022/06/08 05:49:28;;;;;;;;;3.00;1.75;;;;;;;;4973666;28;45414;-68
2022/06/08 05:51:53;;;;;;;;;2.25;2.25;;;;;;;;4975473;28;45466;-68
2022/06/08 05:54:18;;;;;;;;;5.25;3.00;;;;;;;;4974196;28;45486;-68
2022/06/08 05:56:43;;;;;;;;;1.75;1.75;;;;;;;;4959547;28;47843;-68
2022/06/08 05:59:08;;;;;;;;;2.00;1.00;;;;;;;;4969906;28;45715;-68
2022/06/08 06:01:34;;;;;;;;;0.50;0.50;;;;;;;;4972891;28;45453;-68
2022/06/08 06:04:07;;;;;;;;;2.00;1.00;;;;;;;;4972756;28;45538;-68
2022/06/08 06:06:32;;;;;;;;;2.75;2.00;;;;;;;;4972878;28;45513;-67
2022/06/08 06:08:57;;;;;;;;;2.00;2.00;;;;;;;;4987808;28;45524;-67
2022/06/08 06:11:22;;;;;;;;;2.75;1.00;;;;;;;;4972969;28;45501;-67
2022/06/08 06:13:48;;;;;;;;;3.00;1.75;;;;;;;;4972628;28;45347;-67
2022/06/08 06:16:13;;;;;;;;;1.50;1.50;;;;;;;;4987308;28;47664;-67
2022/06/08 06:18:38;;;;;;;;;1.00;1.00;;;;;;;;4972401;28;45482;-67
2022/06/08 06:21:04;;;;;;;;;1.00;1.00;;;;;;;;4972971;28;45399;-67
2022/06/08 06:23:29;;;;;;;;;1.00;1.00;;;;;;;;4970218;28;45514;-68
2022/06/08 06:25:54;;;;;;;;;2.25;0.25;;;;;;;;4974922;28;46632;-68
2022/06/08 06:28:20;;;;;;;;;1.00;1.00;;;;;;;;4974683;28;45381;-68
2022/06/08 06:30:45;;;;;;;;;1.00;1.00;;;;;;;;4971073;28;45294;-68
2022/06/08 06:33:12;;;;;;;;;1.50;1.00;;;;;;;;5003519;28;45548;-68
2022/06/08 06:35:38;;;;;;;;;1.00;1.00;;;;;;;;4971166;28;46461;-69
2022/06/08 06:38:03;;;;;;;;;2.00;1.00;;;;;;;;4968425;28;46128;-69
2022/06/08 06:40:29;;;;;;;;;0.00;0.00;;;;;;;;5004110;28;45467;-69
2022/06/08 06:42:55;;;;;;;;;2.00;1.00;;;;;;;;4971509;28;45975;-69
2022/06/08 06:45:20;;;;;;;;;1.50;1.00;;;;;;;;4972737;28;45792;-68
2022/06/08 06:47:45;;;;;;;;;1.25;1.25;;;;;;;;4990733;28;46270;-68
2022/06/08 06:50:12;;;;;;;;;2.00;1.00;;;;;;;;4974593;28;45391;-68
2022/06/08 06:52:38;;;;;;;;;1.50;1.00;;;;;;;;4976269;28;45434;-67
2022/06/08 06:55:03;;;;;;;;;1.50;1.50;;;;;;;;4977844;28;46507;-67
2022/06/08 06:57:28;;;;;;;;;1.00;0.75;;;;;;;;4978114;28;45874;-67
2022/06/08 06:59:53;;;;;;;;;1.00;1.00;;;;;;;;4976527;28;45324;-67
2022/06/08 07:02:20;;;;;;;;;0.00;0.00;;;;;;;;4967341;28;46248;-68
2022/06/08 07:04:46;;;;;;;;;1.50;1.25;;;;;;;;4976943;28;46524;-69
2022/06/08 07:07:12;;;;;;;;;0.00;0.00;;;;;;;;4975933;28;45378;-70
2022/06/08 07:09:38;;;;;;;;;1.00;1.00;;;;;;;;4992724;28;45444;-68
2022/06/08 07:12:03;;;;;;;;;1.00;1.00;;;;;;;;4978020;28;45611;-70
2022/06/08 07:14:29;;;;;;;;;0.75;0.75;;;;;;;;5008194;28;47428;-67
2022/06/08 07:16:54;;;;;;;;;1.00;0.00;;;;;;;;4975694;28;45928;-70
2022/06/08 07:19:20;;;;;;;;;1.75;1.00;;;;;;;;4976612;28;45519;-68
2022/06/08 07:21:45;;;;;;;;;0.50;0.50;;;;;;;;4974710;28;45395;-68
2022/06/08 07:24:21;;;;;;;;;1.00;1.00;;;;;;;;4977751;28;46368;-68
2022/06/08 07:26:47;;;;;;;;;0.50;0.50;;;;;;;;4977626;28;45403;-69
2022/06/08 07:29:13;;;;;;;;;0.00;0.00;;;;;;;;4975994;28;45916;-67
2022/06/08 07:31:39;;;;;;;;;0.00;0.00;;;;;;;;4977566;28;45563;-69
2022/06/08 07:34:04;;;;;;;;;1.00;0.25;;;;;;;;4973858;28;46142;-68
2022/06/08 07:36:29;;;;;;;;;0.00;0.00;;;;;;;;5008511;28;45491;-68
2022/06/08 07:38:56;;;;;;;;;1.50;0.25;;;;;;;;4978161;28;45606;-69
2022/06/08 07:41:22;;;;;;;;;2.00;0.00;;;;;;;;4975811;28;45504;-69
2022/06/08 07:43:47;;;;;;;;;0.00;0.00;;;;;;;;4975747;28;47572;-69
2022/06/08 07:46:12;;;;;;;;;1.25;0.00;;;;;;;;4971409;28;46317;-68
2022/06/08 07:51:21;;;;;;;;;0.75;0.00;;;;;;;;4969349;28;45526;-68
2022/06/08 07:53:47;;;;;;;;;0.25;0.25;;;;;;;;4969554;28;47939;-68
2022/06/08 07:56:12;;;;;;;;;0.25;0.25;;;;;;;;4970411;28;46326;-69
2022/06/08 07:58:37;;;;;;;;;0.00;0.00;;;;;;;;5004471;28;45496;-68
2022/06/08 08:01:03;;;;;;;;;1.75;1.25;;;;;;;;4972627;28;45355;-68
2022/06/08 08:03:28;;;;;;;;;0.00;0.00;;;;;;;;4972848;28;45538;-66
2022/06/08 08:05:53;;;;;;;;;0.00;0.00;;;;;;;;4972811;28;45514;-67
2022/06/08 08:08:19;;;;;;;;;0.00;0.00;;;;;;;;4971745;28;45482;-68
2022/06/08 08:10:45;;;;;;;;;1.00;1.00;;;;;;;;4971530;28;45571;-67
2022/06/08 08:13:10;;;;;;;;;0.00;0.00;;;;;;;;4972785;28;45583;-68
2022/06/08 08:15:36;;;;;;;;;0.00;0.00;;;;;;;;4972889;28;45388;-66
2022/06/08 08:18:02;;;;;;;;;0.00;0.00;;;;;;;;4972892;28;45473;-68
2022/06/08 08:20:29;;;;;;;;;0.00;0.00;;;;;;;;4971551;28;45387;-67
2022/06/08 08:22:54;;;;;;;;;0.00;0.00;;;;;;;;4970988;28;48433;-69
2022/06/08 08:25:19;;;;;;;;;0.75;0.75;;;;;;;;4972838;28;45463;-69
2022/06/08 08:27:46;;;;;;;;;0.00;0.00;;;;;;;;4971193;28;45801;-69
2022/06/08 08:30:15;;;;;;;;;0.00;0.00;;;;;;;;4973125;28;45410;-68
2022/06/08 08:32:40;;;;;;;;;0.00;0.00;;;;;;;;5003625;28;47405;-69
2022/06/08 08:35:06;;;;;;;;;1.00;1.00;;;;;;;;5014151;28;45636;-67
2022/06/08 08:37:31;;;;;;;;;0.25;0.25;;;;;;;;4972511;28;45390;-67
2022/06/08 08:39:57;;;;;;;;;0.00;0.00;;;;;;;;5004429;28;45393;-67
2022/06/08 08:42:22;;;;;;;;;2.00;0.75;;;;;;;;4972824;28;45518;-67
2022/06/08 08:44:50;;;;;;;;;0.00;0.00;;;;;;;;4970854;28;46060;-66
2022/06/08 08:47:15;;;;;;;;;0.00;0.00;;;;;;;;4971943;28;45499;-66
2022/06/08 08:49:45;;;;;;;;;0.00;0.00;;;;;;;;4975676;28;45676;-66
2022/06/08 08:52:31;;;;;;;;;0.00;0.00;;;;;;;;4974729;28;47810;-66
2022/06/08 08:54:58;;;;;;;;;0.00;0.00;;;;;;;;4970291;28;45512;-68
2022/06/08 08:57:28;;;;;;;;;0.00;0.00;;;;;;;;4954678;28;45323;-67
2022/06/08 08:59:54;;;;;;;;;0.00;0.00;;;;;;;;4953932;28;45726;-67
2022/06/08 09:05:20;;;;;;;;;0.00;0.00;;;;;;;;4953286;28;45438;-67
2022/06/08 09:07:46;;;;;;;;;0.75;0.00;;;;;;;;4953657;28;45590;-66
2022/06/08 09:10:18;;;;;;;;;0.33;0.33;;;;;;;;4937440;28;45479;-68
2022/06/08 09:12:44;;;;;;;;;0.00;0.00;;;;;;;;4937449;28;47714;-68
2022/06/08 09:15:10;;;;;;;;;0.00;0.00;;;;;;;;4953966;28;45587;-68
2022/06/08 09:17:40;;;;;;;;;0.00;0.00;;;;;;;;4937339;28;45605;-67
2022/06/08 09:20:18;;;;;;;;;0.00;0.00;;;;;;;;4953258;28;45546;-67
2022/06/08 09:22:47;;;;;;;;;0.75;0.00;;;;;;;;4953273;28;45547;-67
2022/06/08 09:25:30;;;;;;;;;0.00;0.00;;;;;;;;4953502;28;45542;-68
2022/06/08 09:27:57;;;;;;;;;0.75;0.75;;;;;;;;4937278;28;45450;-67
2022/06/08 09:30:24;;;;;;;;;1.50;0.00;;;;;;;;4953736;28;45473;-67
2022/06/08 09:32:58;;;;;;;;;0.67;0.67;;;;;;;;4970358;28;45637;-66
2022/06/08 09:35:23;;;;;;;;;0.67;0.67;;;;;;;;5006565;28;45375;-66
2022/06/08 09:37:50;;;;;;;;;1.00;1.00;;;;;;;;4975070;28;45414;-66
2022/06/08 09:43:19;;;;;;;;;1.00;1.00;;;;;;;;4974583;28;45961;-68
2022/06/08 09:45:53;;;;;;;;;1.00;1.00;;;;;;;;4974217;28;45525;-67
2022/06/08 09:51:25;;;;;;;;;0.00;0.00;;;;;;;;4974947;28;45558;-68
2022/06/08 09:54:09;;;;;;;;;1.00;0.33;;;;;;;;5005844;28;46641;-67
2022/06/08 09:56:54;;;;;;;;;0.50;0.50;;;;;;;;4974242;28;45539;-67
2022/06/08 09:59:27;;;;;;;;;1.00;1.00;;;;;;;;4974296;28;45559;-67
2022/06/08 10:01:57;;;;;;;;;0.00;0.00;;;;;;;;4974500;28;45591;-66
2022/06/08 10:04:32;;;;;;;;;0.00;0.00;;;;;;;;4972961;28;46428;-68
2022/06/08 10:07:12;;;;;;;;;0.00;0.00;;;;;;;;4973727;28;46266;-65
2022/06/08 10:09:58;;;;;;;;;1.67;0.67;;;;;;;;4989763;28;45395;-67
2022/06/08 10:12:33;;;;;;;;;1.00;1.00;;;;;;;;4987952;28;45599;-66
2022/06/08 10:15:09;;;;;;;;;2.25;1.00;;;;;;;;4982443;28;46280;-69
2022/06/08 10:17:39;;;;;;;;;1.75;0.50;;;;;;;;4985229;28;45469;-67
2022/06/08 10:20:17;;;;;;;;;0.00;0.00;;;;;;;;5013290;28;45451;-67
2022/06/08 10:22:44;;;;;;;;;1.00;1.00;;;;;;;;4988298;28;45519;-67
2022/06/08 10:25:09;;;;;;;;;1.67;1.00;;;;;;;;5020791;28;45981;-67
2022/06/08 10:27:37;;;;;;;;;1.00;1.00;;;;;;;;4986027;28;45909;-68
2022/06/08 10:30:13;;;;;;;;;2.50;1.75;;;;;;;;5005124;28;45550;-66
2022/06/08 10:32:44;;;;;;;;;2.00;2.00;;;;;;;;4980521;28;45541;-66
2022/06/08 10:35:18;;;;;;;;;2.25;2.25;;;;;;;;4983839;28;46273;-66
2022/06/08 10:37:44;;;;;;;;;1.75;0.75;;;;;;;;4973615;28;46293;-66
2022/06/08 10:40:15;;;;;;;;;1.75;1.75;;;;;;;;4984070;28;45488;-66
2022/06/08 10:42:42;;;;;;;;;0.75;0.75;;;;;;;;4989770;28;46896;-67
2022/06/08 10:45:23;;;;;;;;;2.25;2.25;;;;;;;;4982608;28;46577;-66
2022/06/08 10:47:56;;;;;;;;;4.00;2.00;;;;;;;;4987660;28;45603;-67
2022/06/08 10:50:27;;;;;;;;;2.00;2.00;;;;;;;;4981150;28;45461;-68
2022/06/08 10:52:52;;;;;;;;;2.00;2.00;;;;;;;;5000846;28;45660;-67
2022/06/08 10:55:17;;;;;;;;;4.00;3.00;;;;;;;;4988512;28;46529;-67
2022/06/08 10:57:47;;;;;;;;;2.00;2.00;;;;;;;;4984509;28;45737;-67
2022/06/08 11:00:23;;;;;;;;;2.75;2.50;;;;;;;;5005484;28;45703;-67
2022/06/08 11:02:48;;;;;;;;;1.50;1.50;;;;;;;;4979584;28;45489;-66
2022/06/08 11:05:18;;;;;;;;;2.25;2.25;;;;;;;;4988238;28;45398;-67
2022/06/08 11:08:06;;;;;;;;;3.25;3.25;;;;;;;;4986459;28;45671;-67
2022/06/08 11:10:44;;;;;;;;;2.50;2.50;;;;;;;;4984581;28;45431;-66
2022/06/08 11:13:14;;;;;;;;;2.25;2.00;;;;;;;;4962697;28;45399;-67
2022/06/08 11:15:42;;;;;;;;;2.00;2.00;;;;;;;;4984308;28;45572;-66
2022/06/08 11:18:13;;;;;;;;;4.25;1.00;;;;;;;;4990367;28;45580;-68
2022/06/08 11:20:43;;;;;;;;;1.75;1.75;;;;;;;;4979368;28;45871;-66
2022/06/08 11:23:15;;;;;;;;;1.25;1.00;;;;;;;;4977380;28;45440;-68
2022/06/08 11:26:03;;;;;;;;;1.00;1.00;;;;;;;;4976196;28;48527;-68
2022/06/08 11:28:31;;;;;;;;;1.25;1.25;;;;;;;;4979389;28;45541;-67
2022/06/08 11:30:58;;;;;;;;;3.00;2.00;;;;;;;;4972143;28;45712;-66
2022/06/08 11:33:43;;;;;;;;;1.50;1.50;;;;;;;;4973795;28;45483;-67
2022/06/08 11:36:16;;;;;;;;;1.50;1.50;;;;;;;;4973655;28;46188;-67
2022/06/08 11:38:47;;;;;;;;;3.75;2.00;;;;;;;;5004975;28;45533;-67
2022/06/08 11:41:27;;;;;;;;;3.00;2.00;;;;;;;;4964861;28;45465;-68
2022/06/08 11:43:53;;;;;;;;;3.00;1.00;;;;;;;;4994878;28;45391;-67
2022/06/08 11:46:38;;;;;;;;;2.50;1.75;;;;;;;;5019403;28;47630;-67
2022/06/08 11:49:06;;;;;;;;;1.25;1.25;;;;;;;;4978698;28;45457;-67
2022/06/08 11:51:37;;;;;;;;;1.33;1.33;;;;;;;;4987761;28;45613;-67
2022/06/08 11:54:16;;;;;;;;;2.50;1.75;;;;;;;;4987085;28;45512;-67
2022/06/08 11:57:07;;;;;;;;;1.00;1.00;;;;;;;;4979126;28;45719;-68
2022/06/08 11:59:36;;;;;;;;;2.00;1.00;;;;;;;;4986773;28;45450;-67
2022/06/08 12:02:12;;;;;;;;;1.50;0.75;;;;;;;;4979643;28;45377;-67
2022/06/08 12:04:41;;;;;;;;;1.00;0.00;;;;;;;;4966827;28;45529;-66
2022/06/08 12:07:24;;;;;;;;;2.25;1.25;;;;;;;;4988204;28;45500;-66
2022/06/08 12:09:50;;;;;;;;;1.50;0.50;;;;;;;;4984028;28;45408;-68
2022/06/08 12:12:18;;;;;;;;;1.00;1.00;;;;;;;;4991374;28;45343;-67
2022/06/08 12:14:44;;;;;;;;;2.00;1.00;;;;;;;;4983087;28;45407;-67
2022/06/08 12:17:09;;;;;;;;;0.50;0.50;;;;;;;;4996614;28;47516;-67
2022/06/08 12:19:40;;;;;;;;;2.50;1.25;;;;;;;;4979905;28;45480;-66
2022/06/08 12:22:14;;;;;;;;;2.00;1.00;;;;;;;;4984420;28;45434;-67
2022/06/08 12:24:40;;;;;;;;;2.75;1.00;;;;;;;;4989348;28;45563;-68
2022/06/08 12:27:23;;;;;;;;;1.00;1.00;;;;;;;;4988102;28;46200;-67
2022/06/08 12:29:52;;;;;;;;;1.00;1.00;;;;;;;;4990937;28;45615;-68
2022/06/08 12:32:17;;;;;;;;;3.00;1.75;;;;;;;;4986277;28;45477;-67
2022/06/08 12:34:50;;;;;;;;;0.75;0.75;;;;;;;;5005189;28;45623;-67
2022/06/08 12:37:32;;;;;;;;;1.50;1.50;;;;;;;;4989554;28;47861;-67
2022/06/08 12:40:18;;;;;;;;;0.75;0.00;;;;;;;;4982067;28;45335;-67
2022/06/08 12:42:46;;;;;;;;;2.00;0.50;;;;;;;;4979131;28;45988;-66
2022/06/08 12:45:26;;;;;;;;;3.00;2.00;;;;;;;;4987270;28;45475;-68
2022/06/08 12:47:51;;;;;;;;;1.25;1.00;;;;;;;;4990473;28;46644;-67
2022/06/08 12:50:21;;;;;;;;;1.00;1.00;;;;;;;;4984082;28;46165;-67
2022/06/08 12:52:46;;;;;;;;;1.00;1.00;;;;;;;;4990757;28;45922;-67
2022/06/08 12:55:16;;;;;;;;;0.00;0.00;;;;;;;;4990944;28;45339;-66
2022/06/08 12:57:44;;;;;;;;;0.00;0.00;;;;;;;;4988995;28;45557;-67
2022/06/08 13:00:22;;;;;;;;;0.00;0.00;;;;;;;;4991091;28;45360;-67
2022/06/08 13:02:47;;;;;;;;;0.67;0.67;;;;;;;;4980674;28;45363;-67
2022/06/08 13:05:15;;;;;;;;;1.00;1.00;;;;;;;;4979782;28;45387;-66
2022/06/08 13:07:41;;;;;;;;;3.00;1.00;;;;;;;;4979999;28;46377;-66
2022/06/08 13:10:06;;;;;;;;;0.50;0.50;;;;;;;;4976411;28;45533;-66
2022/06/08 13:12:34;;;;;;;;;1.00;1.00;;;;;;;;4979667;28;45642;-66
2022/06/08 13:14:59;;;;;;;;;3.75;1.00;;;;;;;;4980097;28;45523;-67
2022/06/08 13:17:25;;;;;;;;;1.00;1.00;;;;;;;;4979545;28;45473;-68
2022/06/08 13:19:50;;;;;;;;;1.00;1.00;;;;;;;;4979484;28;45911;-67
2022/06/08 13:22:16;;;;;;;;;1.00;1.00;;;;;;;;5009079;28;45638;-66
2022/06/08 13:24:41;;;;;;;;;1.00;1.00;;;;;;;;4978062;28;45375;-66
2022/06/08 13:27:11;;;;;;;;;0.00;0.00;;;;;;;;4980184;28;45583;-65
2022/06/08 13:29:36;;;;;;;;;1.00;0.50;;;;;;;;5011075;28;45556;-66
2022/06/08 13:32:02;;;;;;;;;1.75;0.75;;;;;;;;4979098;28;45408;-66
2022/06/08 13:34:27;;;;;;;;;0.25;0.25;;;;;;;;4978438;28;45596;-66
2022/06/08 13:36:54;;;;;;;;;1.50;1.00;;;;;;;;4976073;28;45685;-66
2022/06/08 13:39:22;;;;;;;;;0.75;0.75;;;;;;;;4978939;28;46347;-67
2022/06/08 13:41:48;;;;;;;;;0.75;0.75;;;;;;;;4975185;28;45633;-65
2022/06/08 13:44:16;;;;;;;;;1.00;1.00;;;;;;;;4975184;28;45794;-65
2022/06/08 13:46:42;;;;;;;;;1.75;1.00;;;;;;;;4975021;28;45531;-66
2022/06/08 13:49:10;;;;;;;;;1.00;1.00;;;;;;;;4975066;28;45484;-66
2022/06/08 13:51:35;;;;;;;;;1.00;1.00;;;;;;;;4975476;28;45408;-66
2022/06/08 13:54:01;;;;;;;;;0.25;0.25;;;;;;;;5006921;28;45600;-66
2022/06/08 13:56:27;;;;;;;;;3.00;1.00;;;;;;;;4974723;28;45742;-66
2022/06/08 13:58:52;;;;;;;;;1.00;1.00;;;;;;;;4975053;28;45387;-66
2022/06/08 14:01:20;;;;;;;;;2.00;1.00;;;;;;;;5006455;28;45495;-65
2022/06/08 14:03:46;;;;;;;;;2.25;2.00;;;;;;;;4974418;28;45382;-66
2022/06/08 14:14:27;;;;;;;;;1.00;1.00;;;;;;;;4974528;28;45433;-67
2022/06/08 14:16:54;;;;;;;;;0.50;0.50;;;;;;;;4972979;28;47421;-66
2022/06/08 14:19:22;;;;;;;;;2.75;1.00;;;;;;;;4974484;28;45326;-66
2022/06/08 14:21:49;;;;;;;;;2.00;0.25;;;;;;;;4972978;28;45398;-65
2022/06/08 14:24:22;;;;;;;;;1.50;1.00;;;;;;;;4975074;28;45530;-66
2022/06/08 14:26:48;;;;;;;;;2.75;1.00;;;;;;;;4972726;28;46598;-67
2022/06/08 14:29:15;;;;;;;;;1.50;1.00;;;;;;;;4972512;28;45460;-67
2022/06/08 14:31:41;;;;;;;;;3.25;2.00;;;;;;;;4973054;28;45526;-67
2022/06/08 14:34:12;;;;;;;;;1.00;1.00;;;;;;;;4973189;28;45509;-66
2022/06/08 14:36:38;;;;;;;;;4.75;1.00;;;;;;;;4973096;28;47872;-66
2022/06/08 14:39:03;;;;;;;;;1.00;1.00;;;;;;;;4973385;28;45975;-67
2022/06/08 14:41:39;;;;;;;;;0.75;0.75;;;;;;;;4972931;28;45536;-67
2022/06/08 14:44:08;;;;;;;;;2.50;1.50;;;;;;;;4972774;28;45549;-67
2022/06/08 14:46:34;;;;;;;;;3.25;2.00;;;;;;;;4970486;28;49091;-66
2022/06/08 14:48:59;;;;;;;;;1.00;1.00;;;;;;;;4957640;28;45499;-67
2022/06/08 14:51:24;;;;;;;;;2.00;0.00;;;;;;;;4988732;28;45751;-67
2022/06/08 14:53:50;;;;;;;;;1.00;1.00;;;;;;;;5004220;28;45621;-67
2022/06/08 14:56:25;;;;;;;;;1.25;1.25;;;;;;;;4972412;28;46110;-64
2022/06/08 14:59:01;;;;;;;;;1.50;1.00;;;;;;;;4971132;28;45631;-67
2022/06/08 15:01:29;;;;;;;;;1.00;1.00;;;;;;;;4972461;28;45330;-67
2022/06/08 15:03:54;;;;;;;;;1.50;0.00;;;;;;;;4972819;28;45630;-67
2022/06/08 15:06:19;;;;;;;;;0.00;0.00;;;;;;;;4972880;28;46563;-66
2022/06/08 15:08:47;;;;;;;;;0.75;0.75;;;;;;;;4972486;28;46167;-65
2022/06/08 15:14:02;;;;;;;;;1.00;1.00;;;;;;;;4972369;28;45527;-66
2022/06/08 15:16:27;;;;;;;;;1.00;1.00;;;;;;;;4972098;28;46529;-66